createdAt,value
2018-06-11T00:01:03.149Z,20.06
2018-06-11T00:03:31.241Z,20.02
2018-06-11T00:05:59.618Z,20.14
2018-06-11T00:08:27.789Z,20.09
2018-06-11T00:10:55.969Z,19.78
2018-06-11T00:13:24.077Z,19.69
2018-06-11T00:15:52.282Z,19.66
2018-06-11T00:18:20.423Z,19.59
2018-06-11T00:20:48.550Z,19.52
2018-06-11T00:23:16.779Z,19.43
2018-06-11T00:25:44.958Z,19.29
2018-06-11T00:28:13.114Z,19.32
2018-06-11T00:30:41.266Z,19.36
2018-06-11T00:33:09.418Z,19.33
2018-06-11T00:35:37.650Z,19.27
2018-06-11T00:38:05.863Z,19.18
2018-06-11T00:40:34.343Z,19.26
2018-06-11T00:43:02.682Z,19.15
2018-06-11T00:45:30.784Z,19.41
2018-06-11T00:47:58.928Z,19.17
2018-06-11T00:50:27.033Z,19.15
2018-06-11T00:52:55.141Z,19.23
2018-06-11T00:55:24.294Z,19.36
2018-06-11T00:57:52.774Z,19.45
2018-06-11T01:00:20.914Z,19.21
2018-06-11T01:02:49.049Z,19.17
2018-06-11T01:05:17.198Z,19.07
2018-06-11T01:07:45.378Z,19.05
2018-06-11T01:10:13.611Z,19.08
2018-06-11T01:12:41.902Z,19.07
2018-06-11T01:15:10.039Z,19.15
2018-06-11T01:17:38.157Z,19.19
2018-06-11T01:20:06.436Z,19.33
2018-06-11T01:22:34.577Z,19.12
2018-06-11T01:25:02.704Z,18.95
2018-06-11T01:27:30.821Z,18.93
2018-06-11T01:29:58.931Z,18.93
2018-06-11T01:32:27.096Z,18.97
2018-06-11T01:34:55.281Z,19.16
2018-06-11T01:37:23.450Z,19.05
2018-06-11T01:39:51.558Z,19.07
2018-06-11T01:42:19.663Z,19.00
2018-06-11T01:44:47.785Z,18.92
2018-06-11T01:47:15.926Z,18.86
2018-06-11T01:49:44.179Z,18.80
2018-06-11T01:52:12.297Z,18.77
2018-06-11T01:54:40.563Z,18.95
2018-06-11T01:57:09.029Z,19.12
2018-06-11T01:59:37.146Z,19.05
2018-06-11T02:02:05.342Z,18.81
2018-06-11T02:04:33.498Z,18.76
2018-06-11T02:07:01.734Z,18.63
2018-06-11T02:09:29.992Z,18.70
2018-06-11T02:11:58.183Z,18.65
2018-06-11T02:14:26.420Z,18.65
2018-06-11T02:16:54.538Z,18.70
2018-06-11T02:19:22.686Z,18.53
2018-06-11T02:21:50.895Z,18.63
2018-06-11T02:24:18.974Z,18.62
2018-06-11T02:26:47.197Z,18.57
2018-06-11T02:29:15.423Z,18.56
2018-06-11T02:31:43.630Z,18.55
2018-06-11T02:34:12.485Z,18.84
2018-06-11T02:36:40.669Z,18.81
2018-06-11T02:39:09.651Z,18.80
2018-06-11T02:41:37.747Z,18.59
2018-06-11T02:44:05.867Z,18.47
2018-06-11T02:46:33.965Z,18.40
2018-06-11T02:49:02.202Z,18.41
2018-06-11T02:51:30.407Z,18.46
2018-06-11T02:53:58.783Z,18.69
2018-06-11T02:56:26.994Z,18.67
2018-06-11T02:58:55.294Z,18.43
2018-06-11T03:01:23.630Z,18.39
2018-06-11T03:03:51.786Z,18.38
2018-06-11T03:06:19.959Z,18.36
2018-06-11T03:08:48.130Z,18.46
2018-06-11T03:11:16.409Z,18.69
2018-06-11T03:13:44.657Z,18.52
2018-06-11T03:16:13.059Z,18.46
2018-06-11T03:18:41.300Z,18.55
2018-06-11T03:21:09.673Z,18.51
2018-06-11T03:23:37.788Z,18.54
2018-06-11T03:26:06.014Z,18.48
2018-06-11T03:28:34.289Z,18.52
2018-06-11T03:31:02.357Z,18.46
2018-06-11T03:33:30.559Z,18.77
2018-06-11T03:35:59.070Z,18.81
2018-06-11T03:38:27.241Z,18.81
2018-06-11T03:40:55.460Z,18.63
2018-06-11T03:43:23.633Z,18.55
2018-06-11T03:45:51.749Z,18.53
2018-06-11T03:48:19.837Z,18.56
2018-06-11T03:50:48.047Z,18.68
2018-06-11T03:53:16.569Z,18.79
2018-06-11T03:55:44.721Z,18.57
2018-06-11T03:58:18.191Z,18.68
2018-06-11T04:00:46.447Z,18.72
2018-06-11T04:03:14.658Z,18.89
2018-06-11T04:05:42.887Z,18.99
2018-06-11T04:08:11.138Z,18.77
2018-06-11T04:10:39.592Z,18.77
2018-06-11T04:13:08.421Z,18.78
2018-06-11T04:15:37.146Z,18.72
2018-06-11T04:18:05.674Z,18.87
2018-06-11T04:20:33.915Z,19.28
2018-06-11T04:23:02.138Z,19.32
2018-06-11T04:25:30.419Z,19.33
2018-06-11T04:27:58.572Z,19.49
2018-06-11T04:30:26.768Z,19.37
2018-06-11T04:32:55.046Z,19.41
2018-06-11T04:35:23.536Z,19.42
2018-06-11T04:37:51.882Z,19.39
2018-06-11T04:40:20.666Z,19.37
2018-06-11T04:42:49.585Z,19.66
2018-06-11T04:45:17.935Z,19.43
2018-06-11T04:47:46.122Z,19.35
2018-06-11T04:50:15.072Z,19.32
2018-06-11T04:52:43.364Z,19.50
2018-06-11T04:55:11.647Z,19.37
2018-06-11T04:57:39.781Z,19.42
2018-06-11T05:00:07.980Z,19.50
2018-06-11T05:02:36.263Z,19.60
2018-06-11T05:05:04.431Z,20.06
2018-06-11T05:07:32.604Z,19.95
2018-06-11T05:10:01.000Z,20.04
2018-06-11T05:12:29.670Z,19.97
2018-06-11T05:14:57.842Z,20.09
2018-06-11T05:17:26.282Z,19.90
2018-06-11T05:19:54.430Z,20.55
2018-06-11T05:22:22.568Z,20.49
2018-06-11T05:24:51.447Z,20.55
2018-06-11T05:27:19.589Z,21.00
2018-06-11T05:29:48.854Z,20.90
2018-06-11T05:32:17.074Z,20.96
2018-06-11T05:34:45.277Z,21.37
2018-06-11T05:37:13.485Z,21.21
2018-06-11T05:39:41.630Z,20.99
2018-06-11T05:42:09.842Z,21.77
2018-06-11T05:44:38.283Z,22.43
2018-06-11T05:47:06.417Z,23.96
2018-06-11T05:49:34.616Z,24.90
2018-06-11T05:52:02.877Z,25.80
2018-06-11T05:54:31.049Z,26.02
2018-06-11T05:56:59.165Z,26.22
2018-06-11T05:59:27.846Z,26.17
2018-06-11T06:01:56.023Z,26.56
2018-06-11T06:04:24.387Z,27.19
2018-06-11T06:06:52.876Z,27.65
2018-06-11T06:09:21.088Z,27.52
2018-06-11T06:11:55.920Z,27.80
2018-06-11T06:14:24.861Z,27.59
2018-06-11T06:16:54.660Z,27.77
2018-06-11T06:19:23.263Z,28.11
2018-06-11T06:21:52.488Z,27.41
2018-06-11T06:24:21.038Z,27.46
2018-06-11T06:26:49.575Z,26.09
2018-06-11T06:29:18.083Z,27.82
2018-06-11T06:31:46.323Z,27.59
2018-06-11T06:34:14.966Z,26.96
2018-06-11T06:36:43.630Z,27.93
2018-06-11T06:39:12.713Z,27.72
2018-06-11T06:41:40.834Z,27.88
2018-06-11T06:44:09.118Z,27.24
2018-06-11T06:46:37.545Z,26.49
2018-06-11T06:49:05.693Z,26.87
2018-06-11T06:51:34.063Z,28.33
2018-06-11T06:54:02.390Z,29.80
2018-06-11T06:56:30.624Z,28.44
2018-06-11T06:58:58.926Z,27.39
2018-06-11T07:01:27.164Z,27.85
2018-06-11T07:03:55.329Z,27.19
2018-06-11T07:06:23.676Z,26.98
2018-06-11T07:08:51.948Z,28.52
2018-06-11T07:11:20.159Z,28.43
2018-06-11T07:13:48.255Z,28.45
2018-06-11T07:16:16.473Z,28.66
2018-06-11T07:18:44.694Z,27.09
2018-06-11T07:21:12.812Z,26.68
2018-06-11T07:23:40.989Z,25.74
2018-06-11T07:26:09.222Z,25.47
2018-06-11T07:28:37.535Z,24.77
2018-06-11T07:31:05.839Z,24.58
2018-06-11T07:33:34.045Z,24.47
2018-06-11T07:36:02.252Z,24.52
2018-06-11T07:38:30.482Z,24.45
2018-06-11T07:40:58.714Z,24.71
2018-06-11T07:43:26.838Z,24.72
2018-06-11T07:45:55.212Z,24.58
2018-06-11T07:48:23.353Z,24.48
2018-06-11T07:50:51.612Z,24.69
2018-06-11T07:53:19.657Z,24.98
2018-06-11T07:55:47.896Z,25.15
2018-06-11T07:58:15.986Z,25.10
2018-06-11T08:00:44.118Z,25.17
2018-06-11T08:03:12.459Z,25.52
2018-06-11T08:05:41.067Z,25.71
2018-06-11T08:08:09.411Z,25.36
2018-06-11T08:10:37.977Z,25.40
2018-06-11T08:13:06.165Z,25.81
2018-06-11T08:15:34.454Z,26.12
2018-06-11T08:18:02.707Z,26.03
2018-06-11T08:20:31.027Z,25.85
2018-06-11T08:22:59.241Z,25.62
2018-06-11T08:25:27.388Z,25.67
2018-06-11T08:27:55.617Z,25.59
2018-06-11T08:30:23.787Z,26.01
2018-06-11T08:32:51.917Z,26.27
2018-06-11T08:35:19.983Z,25.82
2018-06-11T08:37:48.218Z,26.05
2018-06-11T08:40:16.438Z,25.75
2018-06-11T08:42:44.626Z,25.82
2018-06-11T08:45:12.834Z,25.73
2018-06-11T08:47:41.558Z,25.66
2018-06-11T08:50:11.337Z,26.04
2018-06-11T08:52:39.961Z,26.06
2018-06-11T08:55:08.294Z,25.97
2018-06-11T08:57:36.517Z,26.29
2018-06-11T09:00:06.353Z,26.14
2018-06-11T09:02:34.647Z,26.33
2018-06-11T09:05:02.909Z,26.20
2018-06-11T09:07:31.066Z,26.09
2018-06-11T09:09:59.229Z,26.02
2018-06-11T09:12:27.395Z,26.17
2018-06-11T09:14:55.669Z,26.35
2018-06-11T09:17:23.835Z,26.51
2018-06-11T09:19:52.030Z,26.53
2018-06-11T09:22:20.282Z,26.37
2018-06-11T09:24:48.358Z,26.33
2018-06-11T09:27:16.449Z,26.87
2018-06-11T09:29:44.812Z,27.22
2018-06-11T09:32:13.050Z,27.72
2018-06-11T09:34:41.282Z,27.77
2018-06-11T09:37:09.439Z,27.81
2018-06-11T09:39:37.834Z,27.92
2018-06-11T09:42:06.013Z,27.77
2018-06-11T09:44:34.239Z,27.60
2018-06-11T09:47:02.446Z,27.88
2018-06-11T09:49:30.630Z,28.06
2018-06-11T09:51:58.765Z,28.29
2018-06-11T09:54:26.982Z,28.94
2018-06-11T09:56:55.114Z,28.70
2018-06-11T09:59:23.313Z,28.17
2018-06-11T10:01:51.595Z,28.35
2018-06-11T10:04:19.927Z,28.71
2018-06-11T10:06:48.761Z,28.54
2018-06-11T10:09:17.107Z,28.34
2018-06-11T10:11:45.262Z,28.35
2018-06-11T10:14:13.441Z,28.33
2018-06-11T10:16:41.639Z,28.56
2018-06-11T10:19:09.882Z,28.42
2018-06-11T10:21:37.991Z,28.43
2018-06-11T10:24:06.486Z,28.77
2018-06-11T10:26:34.723Z,28.51
2018-06-11T10:29:03.068Z,28.49
2018-06-11T10:31:31.216Z,28.37
2018-06-11T10:33:59.409Z,28.38
2018-06-11T10:36:27.561Z,28.56
2018-06-11T10:38:55.812Z,28.61
2018-06-11T10:41:24.006Z,28.65
2018-06-11T10:43:52.473Z,29.07
2018-06-11T10:46:20.661Z,28.99
2018-06-11T10:48:48.746Z,29.27
2018-06-11T10:51:16.975Z,28.49
2018-06-11T10:53:45.148Z,28.46
2018-06-11T10:56:13.320Z,28.97
2018-06-11T10:58:41.620Z,28.77
2018-06-11T11:01:09.797Z,28.89
2018-06-11T11:03:37.877Z,29.07
2018-06-11T11:06:06.093Z,28.64
2018-06-11T11:08:34.263Z,29.13
2018-06-11T11:11:02.441Z,28.74
2018-06-11T11:13:30.612Z,29.08
2018-06-11T11:15:58.822Z,29.65
2018-06-11T11:18:27.014Z,29.22
2018-06-11T11:20:55.681Z,29.28
2018-06-11T11:23:23.993Z,29.69
2018-06-11T11:25:52.275Z,29.61
2018-06-11T11:28:20.471Z,29.70
2018-06-11T11:30:48.725Z,30.08
2018-06-11T11:33:16.922Z,29.92
2018-06-11T11:35:45.124Z,29.27
2018-06-11T11:38:13.354Z,29.35
2018-06-11T11:40:41.545Z,29.35
2018-06-11T11:43:09.741Z,29.66
2018-06-11T11:45:37.922Z,29.61
2018-06-11T11:48:06.092Z,29.78
2018-06-11T11:50:34.337Z,28.99
2018-06-11T11:53:02.579Z,29.03
2018-06-11T11:55:30.882Z,29.08
2018-06-11T11:57:59.412Z,29.14
2018-06-11T12:00:27.615Z,29.70
2018-06-11T12:02:55.829Z,29.08
2018-06-11T12:05:24.082Z,29.14
2018-06-11T12:07:52.418Z,29.37
2018-06-11T12:10:20.613Z,29.36
2018-06-11T12:12:48.805Z,29.41
2018-06-11T12:15:17.206Z,29.67
2018-06-11T12:17:45.438Z,29.43
2018-06-11T12:20:13.603Z,29.48
2018-06-11T12:22:41.755Z,29.60
2018-06-11T12:25:10.069Z,29.19
2018-06-11T12:27:38.317Z,29.54
2018-06-11T12:30:06.526Z,29.65
2018-06-11T12:32:34.729Z,29.47
2018-06-11T12:35:03.355Z,29.65
2018-06-11T12:37:33.385Z,29.68
2018-06-11T12:40:02.361Z,29.97
2018-06-11T12:42:30.642Z,30.37
2018-06-11T12:44:59.001Z,29.99
2018-06-11T12:47:27.242Z,29.93
2018-06-11T12:49:55.438Z,30.07
2018-06-11T12:52:23.687Z,29.97
2018-06-11T12:54:51.969Z,29.91
2018-06-11T12:57:20.747Z,30.10
2018-06-11T12:59:48.946Z,30.05
2018-06-11T13:02:17.102Z,29.99
2018-06-11T13:04:45.331Z,30.09
2018-06-11T13:07:13.562Z,30.41
2018-06-11T13:09:41.792Z,30.37
2018-06-11T13:12:09.848Z,30.52
2018-06-11T13:14:38.030Z,30.58
2018-06-11T13:17:07.195Z,30.33
2018-06-11T13:19:35.402Z,30.28
2018-06-11T13:22:04.105Z,30.59
2018-06-11T13:24:32.415Z,31.02
2018-06-11T13:27:00.546Z,30.82
2018-06-11T13:29:28.719Z,30.58
2018-06-11T13:31:57.095Z,29.93
2018-06-11T13:34:25.318Z,29.04
2018-06-11T13:36:53.389Z,28.78
2018-06-11T13:39:21.642Z,29.12
2018-06-11T13:41:49.751Z,28.75
2018-06-11T13:44:17.921Z,28.55
2018-06-11T13:46:46.413Z,28.54
2018-06-11T13:49:14.870Z,28.13
2018-06-11T13:51:43.079Z,28.14
2018-06-11T13:54:11.669Z,27.62
2018-06-11T13:56:40.103Z,27.52
2018-06-11T13:59:08.865Z,27.35
2018-06-11T14:01:37.088Z,27.48
2018-06-11T14:04:05.555Z,27.46
2018-06-11T14:06:33.870Z,27.41
2018-06-11T14:09:02.382Z,27.19
2018-06-11T14:11:30.626Z,27.31
2018-06-11T14:13:58.865Z,27.25
2018-06-11T14:16:27.410Z,26.86
2018-06-11T14:18:55.686Z,26.56
2018-06-11T14:21:24.063Z,26.67
2018-06-11T14:23:52.291Z,26.66
2018-06-11T14:26:20.508Z,26.49
2018-06-11T14:28:48.787Z,26.44
2018-06-11T14:31:17.246Z,26.08
2018-06-11T14:33:45.544Z,25.71
2018-06-11T14:36:13.981Z,25.58
2018-06-11T14:38:42.440Z,25.57
2018-06-11T14:41:11.263Z,25.52
2018-06-11T14:43:39.634Z,25.50
2018-06-11T14:46:08.359Z,25.34
2018-06-11T14:48:36.727Z,25.17
2018-06-11T14:51:04.959Z,25.19
2018-06-11T14:53:33.329Z,24.76
2018-06-11T14:56:01.753Z,24.73
2018-06-11T14:58:30.106Z,24.17
2018-06-11T15:00:58.482Z,24.00
2018-06-11T15:03:26.703Z,23.84
2018-06-11T15:05:55.093Z,23.73
2018-06-11T15:08:23.429Z,23.87
2018-06-11T15:10:51.896Z,23.82
2018-06-11T15:13:20.214Z,23.34
2018-06-11T15:15:48.504Z,22.97
2018-06-11T15:18:16.842Z,22.41
2018-06-11T15:20:45.082Z,21.89
2018-06-11T15:23:13.308Z,21.71
2018-06-11T15:25:41.594Z,21.56
2018-06-11T15:28:09.769Z,21.41
2018-06-11T15:30:38.066Z,21.18
2018-06-11T15:33:06.326Z,21.05
2018-06-11T15:35:34.756Z,20.92
2018-06-11T15:38:03.034Z,20.68
2018-06-11T15:40:31.316Z,20.15
2018-06-11T15:42:59.565Z,19.70
2018-06-11T15:45:27.867Z,19.47
2018-06-11T15:47:56.115Z,19.33
2018-06-11T15:50:24.277Z,19.20
2018-06-11T15:52:52.416Z,19.34
2018-06-11T15:55:27.505Z,19.31
2018-06-11T15:57:55.743Z,19.34
2018-06-11T16:00:24.050Z,19.35
2018-06-11T16:02:52.155Z,19.33
2018-06-11T16:05:20.881Z,19.44
2018-06-11T16:07:49.114Z,19.46
2018-06-11T16:10:17.309Z,19.55
2018-06-11T16:12:45.567Z,19.45
2018-06-11T16:15:13.732Z,19.41
2018-06-11T16:17:42.090Z,19.42
2018-06-11T16:20:10.414Z,19.41
2018-06-11T16:22:38.619Z,19.61
2018-06-11T16:25:06.827Z,19.73
2018-06-11T16:27:35.119Z,19.85
2018-06-11T16:30:03.447Z,19.98
2018-06-11T16:32:31.852Z,19.99
2018-06-11T16:35:00.260Z,19.90
2018-06-11T16:37:28.684Z,19.82
2018-06-11T16:39:57.010Z,19.80
2018-06-11T16:42:25.368Z,19.72
2018-06-11T16:44:53.642Z,19.59
2018-06-11T16:47:21.890Z,19.68
2018-06-11T16:49:50.238Z,19.59
2018-06-11T16:52:18.599Z,19.70
2018-06-11T16:54:47.118Z,19.67
2018-06-11T16:57:15.383Z,19.64
2018-06-11T16:59:43.683Z,19.56
2018-06-11T17:02:12.031Z,19.53
2018-06-11T17:04:40.721Z,19.57
2018-06-11T17:07:08.958Z,19.52
2018-06-11T17:09:37.526Z,19.52
2018-06-11T17:12:05.958Z,19.46
2018-06-11T17:14:34.387Z,19.51
2018-06-11T17:17:02.941Z,19.34
2018-06-11T17:19:31.233Z,19.41
2018-06-11T17:21:59.843Z,19.51
2018-06-11T17:24:28.203Z,19.61
2018-06-11T17:26:56.809Z,19.60
2018-06-11T17:29:25.172Z,19.77
2018-06-11T17:31:56.564Z,19.81
2018-06-11T17:34:25.381Z,19.98
2018-06-11T17:36:53.898Z,20.04
2018-06-11T17:39:22.261Z,20.20
2018-06-11T17:41:51.614Z,20.33
2018-06-11T17:44:19.737Z,20.33
2018-06-11T17:46:48.343Z,20.48
2018-06-11T17:49:16.726Z,20.70
2018-06-11T17:51:45.164Z,20.82
2018-06-11T17:54:13.485Z,20.91
2018-06-11T17:56:41.881Z,20.93
2018-06-11T17:59:10.078Z,20.91
2018-06-11T18:01:38.747Z,20.94
2018-06-11T18:04:07.235Z,20.90
2018-06-11T18:06:36.153Z,20.76
2018-06-11T18:09:07.822Z,20.81
2018-06-11T18:11:36.904Z,20.87
2018-06-11T18:14:05.914Z,20.86
2018-06-11T18:16:35.624Z,20.69
2018-06-11T18:19:03.944Z,20.65
2018-06-11T18:21:32.259Z,20.62
2018-06-11T18:24:00.661Z,20.56
2018-06-11T18:26:28.938Z,20.36
2018-06-11T18:28:57.282Z,20.41
2018-06-11T18:31:25.728Z,20.30
2018-06-11T18:33:53.964Z,20.27
2018-06-11T18:36:22.408Z,20.17
2018-06-11T18:38:50.717Z,20.20
2018-06-11T18:41:19.181Z,20.24
2018-06-11T18:43:47.648Z,20.13
2018-06-11T18:46:16.172Z,19.98
2018-06-11T18:48:44.560Z,19.95
2018-06-11T18:51:12.900Z,19.91
2018-06-11T18:53:41.229Z,19.92
2018-06-11T18:56:09.538Z,19.98
2018-06-11T18:58:38.089Z,20.23
2018-06-11T19:01:06.345Z,20.18
2018-06-11T19:03:35.085Z,20.08
2018-06-11T19:06:03.560Z,20.06
2018-06-11T19:08:32.676Z,20.12
2018-06-11T19:11:01.081Z,20.04
2018-06-11T19:13:29.432Z,20.07
2018-06-11T19:15:57.801Z,20.05
2018-06-11T19:18:26.155Z,19.95
2018-06-11T19:20:54.612Z,19.83
2018-06-11T19:23:22.920Z,19.94
2018-06-11T19:25:51.310Z,19.99
2018-06-11T19:28:19.769Z,19.95
2018-06-11T19:30:48.250Z,20.01
2018-06-11T19:33:16.679Z,19.98
2018-06-11T19:35:45.511Z,19.99
2018-06-11T19:38:13.797Z,20.02
2018-06-11T19:40:42.104Z,19.92
2018-06-11T19:43:10.434Z,19.97
2018-06-11T19:45:38.757Z,19.91
2018-06-11T19:48:06.991Z,19.99
2018-06-11T19:50:35.217Z,20.03
2018-06-11T19:53:03.607Z,19.97
2018-06-11T19:55:31.931Z,20.10
2018-06-11T19:58:00.146Z,20.13
2018-06-11T20:00:28.473Z,20.17
2018-06-11T20:02:56.663Z,20.00
2018-06-11T20:05:24.883Z,19.93
2018-06-11T20:07:53.091Z,19.93
2018-06-11T20:10:21.340Z,19.96
2018-06-11T20:12:49.594Z,19.80
2018-06-11T20:15:17.780Z,19.92
2018-06-11T20:17:46.069Z,20.01
2018-06-11T20:20:14.627Z,20.02
2018-06-11T20:22:43.282Z,19.92
2018-06-11T20:25:11.508Z,19.92
2018-06-11T20:27:39.728Z,19.85
2018-06-11T20:30:07.975Z,19.69
2018-06-11T20:32:36.175Z,19.68
2018-06-11T20:35:04.456Z,19.63
2018-06-11T20:37:32.815Z,19.82
2018-06-11T20:40:01.164Z,19.68
2018-06-11T20:42:29.561Z,19.68
2018-06-11T20:44:57.814Z,19.71
2018-06-11T20:47:26.210Z,19.78
2018-06-11T20:49:54.545Z,19.74
2018-06-11T20:52:22.930Z,19.75
2018-06-11T20:54:51.277Z,19.67
2018-06-11T20:57:19.497Z,19.81
2018-06-11T20:59:47.715Z,19.83
2018-06-11T21:02:15.970Z,19.85
2018-06-11T21:04:44.629Z,19.84
2018-06-11T21:07:12.986Z,19.90
2018-06-11T21:09:41.307Z,19.94
2018-06-11T21:12:09.441Z,19.74
2018-06-11T21:14:37.516Z,19.71
2018-06-11T21:17:05.938Z,19.65
2018-06-11T21:19:34.218Z,19.67
2018-06-11T21:22:02.422Z,19.68
2018-06-11T21:24:30.698Z,19.69
2018-06-11T21:26:59.134Z,19.75
2018-06-11T21:29:27.393Z,19.73
2018-06-11T21:31:55.714Z,19.66
2018-06-11T21:34:23.968Z,19.71
2018-06-11T21:36:52.085Z,19.69
2018-06-11T21:39:20.382Z,19.71
2018-06-11T21:41:49.147Z,19.60
2018-06-11T21:44:17.326Z,19.64
2018-06-11T21:46:45.579Z,19.59
2018-06-11T21:49:13.922Z,19.60
2018-06-11T21:51:42.305Z,19.52
2018-06-11T21:54:10.550Z,19.52
2018-06-11T21:56:38.925Z,19.50
2018-06-11T21:59:07.213Z,19.49
2018-06-11T22:01:35.354Z,19.34
2018-06-11T22:04:03.739Z,19.54
2018-06-11T22:06:31.778Z,19.37
2018-06-11T22:09:00.035Z,19.35
2018-06-11T22:11:28.171Z,19.26
2018-06-11T22:13:56.376Z,19.34
2018-06-11T22:16:24.494Z,19.41
2018-06-11T22:18:52.849Z,19.02
2018-06-11T22:21:20.976Z,19.34
2018-06-11T22:23:49.081Z,19.29
2018-06-11T22:26:17.477Z,19.27
2018-06-11T22:28:45.659Z,19.24
2018-06-11T22:31:13.910Z,19.32
2018-06-11T22:33:42.265Z,19.31
2018-06-11T22:36:10.615Z,19.23
2018-06-11T22:38:38.745Z,19.21
2018-06-11T22:41:07.093Z,19.17
2018-06-11T22:43:35.306Z,19.16
2018-06-11T22:46:03.495Z,19.16
2018-06-11T22:48:31.614Z,19.24
2018-06-11T22:50:59.797Z,19.18
2018-06-11T22:53:27.929Z,19.23
2018-06-11T22:55:56.106Z,19.28
2018-06-11T22:58:24.241Z,19.28
2018-06-11T23:00:52.366Z,19.27
2018-06-11T23:03:20.430Z,19.09
2018-06-11T23:05:53.593Z,19.13
2018-06-11T23:08:21.680Z,19.07
2018-06-11T23:10:49.838Z,19.11
2018-06-11T23:13:17.934Z,19.24
2018-06-11T23:15:46.050Z,19.22
2018-06-11T23:18:14.222Z,19.22
2018-06-11T23:20:42.417Z,19.18
2018-06-11T23:23:10.596Z,19.20
2018-06-11T23:25:45.684Z,19.22
2018-06-11T23:28:13.957Z,19.27
2018-06-11T23:30:42.161Z,19.28
2018-06-11T23:33:10.461Z,19.24
2018-06-11T23:35:38.739Z,19.25
2018-06-11T23:38:06.898Z,19.33
2018-06-11T23:40:35.102Z,19.29
2018-06-11T23:43:03.236Z,19.16
2018-06-11T23:45:31.341Z,19.21
2018-06-11T23:48:00.098Z,19.24
2018-06-11T23:50:28.229Z,19.17
2018-06-11T23:52:56.810Z,19.18
2018-06-11T23:55:25.024Z,19.16
2018-06-11T23:57:53.365Z,19.24
